Rubiataba, Brazil
Current Conditions -  °F | °C
As of 7:00 AM on Friday 28 Nov 2014 (Local Time) from SBAN Reporting Station
Broken Clouds Broken Clouds  
Wind Chill: 64°   Ceiling: 8000
Heat Index: 64°   Visibility: 6mi
Dew Point: 63°   Wind: 33mph
Humidity: 94%   Direction: 20°NNE
Pressure: 30.06"   Gusts: NA
Location:  15.16°S, 49.8°W
Report Text: SBAN 280900Z 02029KT 9999 FEW009 BKN080 18/17 Q1018
Loading
Personal Weather Stations






























Interactive Weather Map New forecast layout! Learn more

10-Day Weather Forecast

Advertisements
Track Severe Weather on mobile